PWSweather.com
Personal Weather Stations
Station Observations
KJ4AJP
Beautiful Downtown Gardner, Martin, TN 38237

Beautiful Downtown GardnerMartin, TN 38237

Lat: 36.358, Lon: -88.8994

Elevation: 384.3

Station Type: TP1080WC

http://weather.mambm.com/

High Low Average
Temperature 49.1°F9.5°C 37.2°F2.9°C 43.4°F6.3°C
Dew Point 48.8°F9.3°C 37.0°F2.8°C 43.1°F6.2°C
Winds 8.3 mph 13.4 kmh Calm Calm 2.0 mph SE3.2 kmh SE
Wind Gusts 13.6 mph21.9 kmh 0.7 mph1.1 kmh 7.0 mph11.3 kmh
Humidity 99% 99% 99%
Pressure 30.02 in1016.6 mb 29.85 in1010.8 mb -
Precipitation 0.64 in16.3 mm - -
Hour Temp Dew Point Humidity Winds Wind Gusts Pressure Precip Precip Rate Daily Precip Total
12:00 AM 48.7°F9.3°C 48.5°F9.2°C 99% 0.7 mph SE1.1 kmh SE 3.1 mph5.0 kmh 30.01 in1016.3 mb 0.02 in0.5 mm 0.00 in0.0 mm 0.02 in0.5 mm
12:15 AM 48.7°F9.3°C 48.5°F9.2°C 99% Calm Calm 2.2 mph3.5 kmh 30.02 in1016.6 mb 0.02 in0.5 mm 0.00 in0.0 mm 0.01 in0.3 mm
12:30 AM 48.7°F9.3°C 48.5°F9.2°C 99% 1.6 mph E2.6 kmh E 2.2 mph3.5 kmh 30.01 in1016.3 mb 0.07 in1.8 mm 0.20 in5.1 mm 0.07 in1.8 mm
12:45 AM 48.7°F9.3°C 48.5°F9.2°C 99% 0.7 mph NE1.1 kmh NE 3.1 mph5.0 kmh 29.99 in1015.6 mb 0.13 in3.3 mm 0.24 in6.1 mm 0.13 in3.3 mm
01:00 AM 48.7°F9.3°C 48.5°F9.2°C 99% 1.6 mph NW2.6 kmh NW 2.2 mph3.5 kmh 30.00 in1015.9 mb 0.17 in4.3 mm 0.05 in1.3 mm 0.17 in4.3 mm
01:15 AM 48.6°F9.2°C 48.3°F9.1°C 99% 0.7 mph NNW1.1 kmh NNW 2.2 mph3.5 kmh 30.00 in1015.9 mb 0.19 in4.8 mm 0.08 in2.0 mm 0.20 in5.1 mm
01:30 AM 48.6°F9.2°C 48.3°F9.1°C 99% 0.7 mph NW1.1 kmh NW 2.2 mph3.5 kmh 30.01 in1016.3 mb 0.14 in3.6 mm 0.00 in0.0 mm 0.21 in5.3 mm
01:45 AM 48.6°F9.2°C 48.3°F9.1°C 99% Calm Calm 1.6 mph2.6 kmh 30.00 in1015.9 mb 0.09 in2.3 mm 0.00 in0.0 mm 0.22 in5.6 mm
02:00 AM 48.4°F9.1°C 48.1°F8.9°C 99% 1.6 mph N2.6 kmh N 3.1 mph5.0 kmh 30.00 in1015.9 mb 0.08 in2.0 mm 0.00 in0.0 mm 0.25 in6.4 mm
02:15 AM 48.4°F9.1°C 48.1°F8.9°C 99% 0.7 mph NNE1.1 kmh NNE 3.1 mph5.0 kmh 29.98 in1015.2 mb 0.06 in1.5 mm 0.00 in0.0 mm 0.26 in6.6 mm
02:30 AM 48.2°F9.0°C 47.9°F8.8°C 99% Calm Calm 2.2 mph3.5 kmh 29.98 in1015.2 mb 0.07 in1.8 mm 0.04 in1.0 mm 0.28 in7.1 mm
02:45 AM 48.2°F9.0°C 47.9°F8.8°C 99% Calm Calm 1.6 mph2.6 kmh 29.97 in1014.9 mb 0.06 in1.5 mm 0.00 in0.0 mm 0.30 in7.6 mm
03:00 AM 48.4°F9.1°C 48.1°F8.9°C 99% Calm Calm 1.6 mph2.6 kmh 29.97 in1014.9 mb 0.07 in1.8 mm 0.01 in0.3 mm 0.32 in8.1 mm
03:15 AM 48.4°F9.1°C 48.1°F8.9°C 99% 0.7 mph E1.1 kmh E 3.1 mph5.0 kmh 29.97 in1014.9 mb 0.08 in2.0 mm 0.04 in1.0 mm 0.34 in8.6 mm
03:30 AM 48.4°F9.1°C 48.1°F8.9°C 99% 0.7 mph E1.1 kmh E 3.1 mph5.0 kmh 29.96 in1014.6 mb 0.07 in1.8 mm 0.00 in0.0 mm 0.35 in8.9 mm
03:45 AM 48.4°F9.1°C 48.1°F8.9°C 99% 0.7 mph ENE1.1 kmh ENE 3.1 mph5.0 kmh 29.97 in1014.9 mb 0.07 in1.8 mm 0.00 in0.0 mm 0.37 in9.4 mm
04:00 AM 48.4°F9.1°C 48.1°F8.9°C 99% 0.7 mph ENE1.1 kmh ENE 2.2 mph3.5 kmh 29.97 in1014.9 mb 0.06 in1.5 mm 0.00 in0.0 mm 0.38 in9.7 mm
04:15 AM 48.4°F9.1°C 48.1°F8.9°C 99% 0.7 mph ENE1.1 kmh ENE 2.2 mph3.5 kmh 29.98 in1015.2 mb 0.05 in1.3 mm 0.00 in0.0 mm 0.39 in9.9 mm
04:30 AM 48.4°F9.1°C 48.1°F8.9°C 99% Calm Calm 2.2 mph3.5 kmh 29.98 in1015.2 mb 0.05 in1.3 mm 0.00 in0.0 mm 0.40 in10.2 mm
04:45 AM 48.6°F9.2°C 48.3°F9.1°C 99% Calm Calm 3.1 mph5.0 kmh 29.97 in1014.9 mb 0.05 in1.3 mm 0.00 in0.0 mm 0.41 in10.4 mm
05:00 AM 48.6°F9.2°C 48.3°F9.1°C 99% 0.7 mph ESE1.1 kmh ESE 3.1 mph5.0 kmh 29.98 in1015.2 mb 0.06 in1.5 mm 0.01 in0.3 mm 0.44 in11.2 mm
05:15 AM 48.7°F9.3°C 48.5°F9.2°C 99% 1.6 mph E2.6 kmh E 3.1 mph5.0 kmh 29.97 in1014.9 mb 0.06 in1.5 mm 0.00 in0.0 mm 0.45 in11.4 mm
05:30 AM 48.7°F9.3°C 48.5°F9.2°C 99% Calm Calm 1.6 mph2.6 kmh 29.98 in1015.2 mb 0.05 in1.3 mm 0.00 in0.0 mm 0.45 in11.4 mm
05:45 AM 48.7°F9.3°C 48.5°F9.2°C 99% 0.7 mph E1.1 kmh E 1.6 mph2.6 kmh 29.97 in1014.9 mb 0.05 in1.3 mm 0.00 in0.0 mm 0.46 in11.7 mm
06:00 AM 48.9°F9.4°C 48.7°F9.3°C 99% 0.7 mph E1.1 kmh E 1.6 mph2.6 kmh 29.97 in1014.9 mb 0.02 in0.5 mm 0.00 in0.0 mm 0.46 in11.7 mm
06:15 AM 48.9°F9.4°C 48.7°F9.3°C 99% 1.6 mph E2.6 kmh E 2.2 mph3.5 kmh 29.97 in1014.9 mb 0.01 in0.3 mm 0.00 in0.0 mm 0.46 in11.7 mm
06:30 AM 48.9°F9.4°C 48.7°F9.3°C 99% Calm Calm 2.2 mph3.5 kmh 29.98 in1015.2 mb 0.00 in0.0 mm 0.00 in0.0 mm 0.46 in11.7 mm
06:45 AM 49.1°F9.5°C 48.8°F9.3°C 99% Calm Calm 0.7 mph1.1 kmh 29.98 in1015.2 mb 0.01 in0.3 mm 0.04 in1.0 mm 0.47 in11.9 mm
07:00 AM 48.9°F9.4°C 48.7°F9.3°C 99% 0.7 mph NNW1.1 kmh NNW 1.6 mph2.6 kmh 29.98 in1015.2 mb 0.01 in0.3 mm 0.00 in0.0 mm 0.47 in11.9 mm
07:15 AM 48.9°F9.4°C 48.7°F9.3°C 99% 0.7 mph NW1.1 kmh NW 2.2 mph3.5 kmh 29.98 in1015.2 mb 0.01 in0.3 mm 0.00 in0.0 mm 0.47 in11.9 mm
07:30 AM 48.7°F9.3°C 48.5°F9.2°C 99% Calm Calm 1.6 mph2.6 kmh 29.97 in1014.9 mb 0.01 in0.3 mm 0.00 in0.0 mm 0.47 in11.9 mm
07:45 AM 48.7°F9.3°C 48.5°F9.2°C 99% Calm Calm 1.6 mph2.6 kmh 29.98 in1015.2 mb 0.00 in0.0 mm 0.00 in0.0 mm 0.47 in11.9 mm
08:00 AM 48.9°F9.4°C 48.7°F9.3°C 99% 0.7 mph NW1.1 kmh NW 2.2 mph3.5 kmh 29.98 in1015.2 mb 0.00 in0.0 mm 0.00 in0.0 mm 0.47 in11.9 mm
08:15 AM 48.9°F9.4°C 48.7°F9.3°C 99% 3.1 mph N5.0 kmh N 5.4 mph8.7 kmh 29.97 in1014.9 mb 0.00 in0.0 mm 0.00 in0.0 mm 0.47 in11.9 mm
08:30 AM 48.9°F9.4°C 48.7°F9.3°C 99% 0.7 mph NW1.1 kmh NW 2.2 mph3.5 kmh 29.98 in1015.2 mb 0.00 in0.0 mm 0.00 in0.0 mm 0.47 in11.9 mm
08:45 AM 48.9°F9.4°C 48.7°F9.3°C 99% 2.2 mph N3.5 kmh N 4.5 mph7.2 kmh 29.95 in1014.2 mb 0.00 in0.0 mm 0.00 in0.0 mm 0.47 in11.9 mm
09:00 AM 49.1°F9.5°C 48.8°F9.3°C 99% 1.6 mph NNW2.6 kmh NNW 5.4 mph8.7 kmh 29.96 in1014.6 mb 0.00 in0.0 mm 0.00 in0.0 mm 0.47 in11.9 mm
09:15 AM 48.9°F9.4°C 48.7°F9.3°C 99% 1.6 mph NNW2.6 kmh NNW 6.0 mph9.7 kmh 29.96 in1014.6 mb 0.00 in0.0 mm 0.00 in0.0 mm 0.47 in11.9 mm
09:30 AM 48.0°F8.9°C 47.8°F8.8°C 99% 2.2 mph NNW3.5 kmh NNW 4.5 mph7.2 kmh 29.97 in1014.9 mb 0.00 in0.0 mm 0.00 in0.0 mm 0.47 in11.9 mm
09:45 AM 46.0°F7.8°C 45.8°F7.7°C 99% 2.2 mph N3.5 kmh N 9.2 mph14.8 kmh 29.98 in1015.2 mb 0.00 in0.0 mm 0.00 in0.0 mm 0.47 in11.9 mm
10:00 AM 44.4°F6.9°C 44.2°F6.8°C 99% 3.1 mph NNW5.0 kmh NNW 10.7 mph17.2 kmh 29.98 in1015.2 mb 0.01 in0.3 mm 0.01 in0.3 mm 0.48 in12.2 mm
10:15 AM 43.5°F6.4°C 43.3°F6.3°C 99% 6.9 mph N11.1 kmh N 10.7 mph17.2 kmh 29.99 in1015.6 mb 0.01 in0.3 mm 0.00 in0.0 mm 0.48 in12.2 mm
10:30 AM 42.8°F6.0°C 42.5°F5.8°C 99% 4.5 mph N7.2 kmh N 9.8 mph15.8 kmh 29.99 in1015.6 mb 0.01 in0.3 mm 0.00 in0.0 mm 0.48 in12.2 mm
10:45 AM 42.4°F5.8°C 42.2°F5.7°C 99% 5.4 mph NNW8.7 kmh NNW 10.7 mph17.2 kmh 30.00 in1015.9 mb 0.01 in0.3 mm 0.00 in0.0 mm 0.48 in12.2 mm
11:00 AM 41.9°F5.5°C 41.6°F5.3°C 99% 3.1 mph NW5.0 kmh NW 7.6 mph12.2 kmh 30.00 in1015.9 mb 0.00 in0.0 mm 0.00 in0.0 mm 0.48 in12.2 mm
11:15 AM 41.7°F5.4°C 41.5°F5.3°C 99% 6.0 mph N9.7 kmh N 13.0 mph20.9 kmh 29.99 in1015.6 mb 0.00 in0.0 mm 0.00 in0.0 mm 0.48 in12.2 mm
11:30 AM 41.5°F5.3°C 41.3°F5.2°C 99% 5.4 mph N8.7 kmh N 11.4 mph18.3 kmh 29.98 in1015.2 mb 0.01 in0.3 mm 0.04 in1.0 mm 0.50 in12.7 mm
11:45 AM 41.5°F5.3°C 41.3°F5.2°C 99% 8.3 mph N13.4 kmh N 12.1 mph19.5 kmh 29.95 in1014.2 mb 0.01 in0.3 mm 0.00 in0.0 mm 0.50 in12.7 mm
12:00 PM 41.5°F5.3°C 41.3°F5.2°C 99% 6.0 mph N9.7 kmh N 12.1 mph19.5 kmh 29.95 in1014.2 mb 0.01 in0.3 mm 0.00 in0.0 mm 0.50 in12.7 mm
12:15 PM 41.5°F5.3°C 41.3°F5.2°C 99% 3.8 mph NNW6.1 kmh NNW 10.7 mph17.2 kmh 29.94 in1013.9 mb 0.01 in0.3 mm 0.00 in0.0 mm 0.50 in12.7 mm
12:30 PM 41.4°F5.2°C 41.1°F5.1°C 99% 4.5 mph N7.2 kmh N 10.7 mph17.2 kmh 29.93 in1013.5 mb 0.00 in0.0 mm 0.00 in0.0 mm 0.50 in12.7 mm
12:45 PM 41.4°F5.2°C 41.1°F5.1°C 99% 4.5 mph N7.2 kmh N 8.3 mph13.4 kmh 29.93 in1013.5 mb 0.00 in0.0 mm 0.00 in0.0 mm 0.50 in12.7 mm
01:00 PM 41.2°F5.1°C 40.9°F4.9°C 99% 7.6 mph N12.2 kmh N 10.7 mph17.2 kmh 29.92 in1013.2 mb 0.00 in0.0 mm 0.00 in0.0 mm 0.50 in12.7 mm
01:15 PM 41.4°F5.2°C 41.1°F5.1°C 99% 3.1 mph N5.0 kmh N 10.7 mph17.2 kmh 29.92 in1013.2 mb 0.00 in0.0 mm 0.00 in0.0 mm 0.50 in12.7 mm
01:30 PM 41.4°F5.2°C 41.1°F5.1°C 99% 3.1 mph N5.0 kmh N 9.2 mph14.8 kmh 29.92 in1013.2 mb 0.00 in0.0 mm 0.00 in0.0 mm 0.50 in12.7 mm
01:45 PM 41.4°F5.2°C 41.1°F5.1°C 99% 5.4 mph N8.7 kmh N 12.1 mph19.5 kmh 29.92 in1013.2 mb 0.01 in0.3 mm 0.04 in1.0 mm 0.51 in13.0 mm
02:00 PM 41.4°F5.2°C 41.1°F5.1°C 99% 3.1 mph N5.0 kmh N 11.4 mph18.3 kmh 29.91 in1012.9 mb 0.01 in0.3 mm 0.00 in0.0 mm 0.51 in13.0 mm
02:15 PM 41.2°F5.1°C 40.9°F4.9°C 99% 4.5 mph N7.2 kmh N 11.4 mph18.3 kmh 29.92 in1013.2 mb 0.01 in0.3 mm 0.00 in0.0 mm 0.51 in13.0 mm
02:30 PM 41.0°F5.0°C 40.7°F4.8°C 99% 3.1 mph N5.0 kmh N 9.2 mph14.8 kmh 29.91 in1012.9 mb 0.01 in0.3 mm 0.00 in0.0 mm 0.51 in13.0 mm
02:45 PM 40.8°F4.9°C 40.6°F4.8°C 99% 6.0 mph N9.7 kmh N 11.4 mph18.3 kmh 29.92 in1013.2 mb 0.00 in0.0 mm 0.00 in0.0 mm 0.51 in13.0 mm
03:00 PM 40.6°F4.8°C 40.4°F4.7°C 99% 4.5 mph N7.2 kmh N 11.4 mph18.3 kmh 29.91 in1012.9 mb 0.00 in0.0 mm 0.00 in0.0 mm 0.51 in13.0 mm
03:15 PM 40.5°F4.7°C 40.2°F4.6°C 99% 3.8 mph N6.1 kmh N 11.4 mph18.3 kmh 29.91 in1012.9 mb 0.00 in0.0 mm 0.00 in0.0 mm 0.51 in13.0 mm
03:30 PM 40.3°F4.6°C 40.0°F4.4°C 99% 3.8 mph N6.1 kmh N 12.1 mph19.5 kmh 29.90 in1012.5 mb 0.00 in0.0 mm 0.00 in0.0 mm 0.51 in13.0 mm
03:45 PM 40.5°F4.7°C 40.2°F4.6°C 99% 2.2 mph NNE3.5 kmh NNE 9.2 mph14.8 kmh 29.91 in1012.9 mb 0.01 in0.3 mm 0.04 in1.0 mm 0.52 in13.2 mm
04:00 PM 40.6°F4.8°C 40.4°F4.7°C 99% 2.2 mph N3.5 kmh N 8.3 mph13.4 kmh 29.90 in1012.5 mb 0.01 in0.3 mm 0.00 in0.0 mm 0.52 in13.2 mm
04:15 PM 40.5°F4.7°C 40.2°F4.6°C 99% 2.2 mph NNE3.5 kmh NNE 6.9 mph11.1 kmh 29.89 in1012.2 mb 0.01 in0.3 mm 0.00 in0.0 mm 0.52 in13.2 mm
04:30 PM 40.5°F4.7°C 40.2°F4.6°C 99% 3.1 mph NNE5.0 kmh NNE 8.3 mph13.4 kmh 29.90 in1012.5 mb 0.01 in0.3 mm 0.00 in0.0 mm 0.52 in13.2 mm
04:45 PM 40.3°F4.6°C 40.0°F4.4°C 99% 1.6 mph NNE2.6 kmh NNE 7.6 mph12.2 kmh 29.91 in1012.9 mb 0.00 in0.0 mm 0.00 in0.0 mm 0.52 in13.2 mm
05:00 PM 40.1°F4.5°C 39.8°F4.3°C 99% 7.6 mph N12.2 kmh N 11.4 mph18.3 kmh 29.91 in1012.9 mb 0.00 in0.0 mm 0.00 in0.0 mm 0.52 in13.2 mm
05:15 PM 39.6°F4.2°C 39.3°F4.1°C 99% 4.5 mph N7.2 kmh N 11.4 mph18.3 kmh 29.91 in1012.9 mb 0.00 in0.0 mm 0.00 in0.0 mm 0.52 in13.2 mm
05:30 PM 39.2°F4.0°C 38.9°F3.8°C 99% 2.2 mph N3.5 kmh N 9.2 mph14.8 kmh 29.91 in1012.9 mb 0.00 in0.0 mm 0.00 in0.0 mm 0.52 in13.2 mm
05:45 PM 39.0°F3.9°C 38.8°F3.8°C 99% 3.8 mph NE6.1 kmh NE 11.4 mph18.3 kmh 29.90 in1012.5 mb 0.00 in0.0 mm 0.00 in0.0 mm 0.52 in13.2 mm
06:00 PM 38.7°F3.7°C 38.4°F3.6°C 99% 3.8 mph N6.1 kmh N 11.4 mph18.3 kmh 29.90 in1012.5 mb 0.01 in0.3 mm 0.01 in0.3 mm 0.53 in13.5 mm
06:15 PM 38.5°F3.6°C 38.2°F3.4°C 99% 6.9 mph NNE11.1 kmh NNE 12.1 mph19.5 kmh 29.91 in1012.9 mb 0.01 in0.3 mm 0.00 in0.0 mm 0.53 in13.5 mm
06:30 PM 38.3°F3.5°C 38.0°F3.3°C 99% 3.8 mph NNE6.1 kmh NNE 13.6 mph21.9 kmh 29.91 in1012.9 mb 0.01 in0.3 mm 0.00 in0.0 mm 0.53 in13.5 mm
06:45 PM 38.1°F3.4°C 37.9°F3.3°C 99% 3.8 mph NNE6.1 kmh NNE 12.1 mph19.5 kmh 29.92 in1013.2 mb 0.01 in0.3 mm 0.00 in0.0 mm 0.53 in13.5 mm
07:00 PM 37.9°F3.3°C 37.7°F3.2°C 99% 2.2 mph NNE3.5 kmh NNE 9.2 mph14.8 kmh 29.91 in1012.9 mb 0.00 in0.0 mm 0.00 in0.0 mm 0.53 in13.5 mm
07:15 PM 37.8°F3.2°C 37.5°F3.1°C 99% 3.1 mph NNE5.0 kmh NNE 7.6 mph12.2 kmh 29.91 in1012.9 mb 0.02 in0.5 mm 0.08 in2.0 mm 0.56 in14.2 mm
07:30 PM 37.8°F3.2°C 37.5°F3.1°C 99% 3.1 mph NNE5.0 kmh NNE 9.2 mph14.8 kmh 29.91 in1012.9 mb 0.04 in1.0 mm 0.08 in2.0 mm 0.57 in14.5 mm
07:45 PM 37.6°F3.1°C 37.3°F2.9°C 99% 3.8 mph N6.1 kmh N 8.3 mph13.4 kmh 29.91 in1012.9 mb 0.06 in1.5 mm 0.08 in2.0 mm 0.59 in15.0 mm
08:00 PM 37.4°F3.0°C 37.1°F2.8°C 99% 3.1 mph N5.0 kmh N 9.8 mph15.8 kmh 29.90 in1012.5 mb 0.06 in1.5 mm 0.00 in0.0 mm 0.59 in15.0 mm
08:15 PM 37.4°F3.0°C 37.1°F2.8°C 99% 3.1 mph NNE5.0 kmh NNE 6.0 mph9.7 kmh 29.90 in1012.5 mb 0.04 in1.0 mm 0.00 in0.0 mm 0.59 in15.0 mm
08:30 PM 37.4°F3.0°C 37.1°F2.8°C 99% 3.8 mph NNE6.1 kmh NNE 8.3 mph13.4 kmh 29.90 in1012.5 mb 0.02 in0.5 mm 0.00 in0.0 mm 0.59 in15.0 mm
08:45 PM 37.4°F3.0°C 37.1°F2.8°C 99% 2.2 mph NNE3.5 kmh NNE 8.3 mph13.4 kmh 29.89 in1012.2 mb 0.00 in0.0 mm 0.00 in0.0 mm 0.59 in15.0 mm
09:00 PM 37.4°F3.0°C 37.1°F2.8°C 99% 3.8 mph N6.1 kmh N 6.0 mph9.7 kmh 29.89 in1012.2 mb 0.00 in0.0 mm 0.00 in0.0 mm 0.59 in15.0 mm
09:15 PM 37.2°F2.9°C 37.0°F2.8°C 99% 2.2 mph N3.5 kmh N 8.3 mph13.4 kmh 29.89 in1012.2 mb 0.00 in0.0 mm 0.00 in0.0 mm 0.59 in15.0 mm
09:30 PM 37.2°F2.9°C 37.0°F2.8°C 99% 3.1 mph N5.0 kmh N 7.6 mph12.2 kmh 29.88 in1011.9 mb 0.00 in0.0 mm 0.00 in0.0 mm 0.59 in15.0 mm
09:45 PM 37.2°F2.9°C 37.0°F2.8°C 99% 2.2 mph NNE3.5 kmh NNE 8.3 mph13.4 kmh 29.88 in1011.9 mb 0.02 in0.5 mm 0.08 in2.0 mm 0.61 in15.5 mm
10:00 PM 37.2°F2.9°C 37.0°F2.8°C 99% 1.6 mph NE2.6 kmh NE 6.9 mph11.1 kmh 29.86 in1011.2 mb 0.04 in1.0 mm 0.03 in0.8 mm 0.63 in16.0 mm
10:15 PM 37.2°F2.9°C 37.0°F2.8°C 99% 0.7 mph NE1.1 kmh NE 7.6 mph12.2 kmh 29.87 in1011.5 mb 0.05 in1.3 mm 0.04 in1.0 mm 0.64 in16.3 mm
10:30 PM 37.2°F2.9°C 37.0°F2.8°C 99% 1.6 mph NE2.6 kmh NE 7.6 mph12.2 kmh 29.86 in1011.2 mb 0.05 in1.3 mm 0.00 in0.0 mm 0.64 in16.3 mm
10:45 PM 37.4°F3.0°C 37.1°F2.8°C 99% 1.6 mph NNE2.6 kmh NNE 3.8 mph6.1 kmh 29.87 in1011.5 mb 0.02 in0.5 mm 0.00 in0.0 mm 0.64 in16.3 mm
11:00 PM 37.4°F3.0°C 37.1°F2.8°C 99% 1.6 mph NE2.6 kmh NE 3.8 mph6.1 kmh 29.86 in1011.2 mb 0.01 in0.3 mm 0.00 in0.0 mm 0.64 in16.3 mm
11:15 PM 37.4°F3.0°C 37.1°F2.8°C 99% 0.7 mph NNE1.1 kmh NNE 4.5 mph7.2 kmh 29.85 in1010.8 mb 0.00 in0.0 mm 0.00 in0.0 mm 0.64 in16.3 mm
11:30 PM 37.4°F3.0°C 37.1°F2.8°C 99% 0.7 mph NNE1.1 kmh NNE 3.1 mph5.0 kmh 29.85 in1010.8 mb 0.00 in0.0 mm 0.00 in0.0 mm 0.64 in16.3 mm
11:45 PM 37.4°F3.0°C 37.1°F2.8°C 99% 1.6 mph N2.6 kmh N 3.8 mph6.1 kmh 29.86 in1011.2 mb 0.00 in0.0 mm 0.00 in0.0 mm 0.64 in16.3 mm